Time,TemperatureF,DewpointF,PressureIn,WindDirection,WindDirectionDegrees,WindSpeedMPH,WindSpeedGustMPH,Humidity,HourlyPrecipIn,Conditions,Clouds,dailyrainin,SoftwareType,DateUTC
2013-01-20 00:01:00,54.0,26.0,30.12,North,5,1.0,2.0,34,0.00,,,0.00,,2013-01-20 08:01:00,
2013-01-20 00:11:00,54.0,26.0,30.12,North,5,1.0,2.0,34,0.00,,,0.00,,2013-01-20 08:11:00,
2013-01-20 00:22:00,54.0,27.0,30.12,North,5,0.0,1.0,35,0.00,,,0.00,,2013-01-20 08:22:00,
2013-01-20 00:32:00,53.0,27.0,30.12,North,5,1.0,2.0,36,0.00,,,0.00,,2013-01-20 08:32:00,
2013-01-20 00:42:00,53.0,27.0,30.12,North,5,1.0,2.0,36,0.00,,,0.00,,2013-01-20 08:42:00,
2013-01-20 00:52:00,53.0,26.0,30.12,North,5,0.0,2.0,35,0.00,,,0.00,,2013-01-20 08:52:00,
2013-01-20 01:02:00,53.0,26.0,30.12,North,351,2.0,3.0,35,0.00,,,0.00,,2013-01-20 09:02:00,
2013-01-20 01:12:00,53.0,26.0,30.12,North,351,2.0,3.0,35,0.00,,,0.00,,2013-01-20 09:12:00,
2013-01-20 01:22:00,53.0,25.0,30.12,North,350,2.0,3.0,33,0.00,,,0.00,,2013-01-20 09:22:00,
2013-01-20 01:33:00,53.0,24.0,30.12,North,10,0.0,3.0,32,0.00,,,0.00,,2013-01-20 09:33:00,
2013-01-20 01:42:00,53.0,24.0,30.12,North,10,0.0,3.0,32,0.00,,,0.00,,2013-01-20 09:42:00,
2013-01-20 01:52:00,53.0,24.0,30.12,North,9,0.0,2.0,32,0.00,,,0.00,,2013-01-20 09:52:00,
2013-01-20 02:02:00,52.0,24.0,30.12,North,9,0.0,2.0,33,0.00,,,0.00,,2013-01-20 10:02:00,
2013-01-20 02:11:00,52.0,24.0,30.12,North,9,0.0,2.0,33,0.00,,,0.00,,2013-01-20 10:11:00,
2013-01-20 02:22:00,52.0,24.0,30.11,North,9,0.0,2.0,33,0.00,,,0.00,,2013-01-20 10:22:00,
2013-01-20 02:32:00,54.0,20.0,30.11,North,9,1.0,2.0,26,0.00,,,0.00,,2013-01-20 10:32:00,
2013-01-20 02:42:00,54.0,20.0,30.11,North,9,1.0,2.0,26,0.00,,,0.00,,2013-01-20 10:42:00,
2013-01-20 02:52:00,56.0,21.0,30.11,North,0,2.0,3.0,25,0.00,,,0.00,,2013-01-20 10:52:00,
2013-01-20 03:02:00,54.0,23.0,30.11,North,0,0.0,2.0,30,0.00,,,0.00,,2013-01-20 11:02:00,
2013-01-20 03:11:00,54.0,23.0,30.11,North,0,0.0,2.0,30,0.00,,,0.00,,2013-01-20 11:11:00,
2013-01-20 03:22:00,52.0,23.0,30.11,North,0,0.0,1.0,32,0.00,,,0.00,,2013-01-20 11:22:00,
2013-01-20 03:32:00,50.0,23.0,30.11,North,0,1.0,1.0,35,0.00,,,0.00,,2013-01-20 11:32:00,
2013-01-20 03:42:00,50.0,23.0,30.11,North,0,1.0,1.0,35,0.00,,,0.00,,2013-01-20 11:42:00,
2013-01-20 03:53:00,50.0,25.0,30.11,North,0,1.0,2.0,37,0.00,,,0.00,,2013-01-20 11:53:00,
2013-01-20 04:02:00,49.0,24.0,30.11,North,0,1.0,2.0,37,0.00,,,0.00,,2013-01-20 12:02:00,
2013-01-20 04:11:00,49.0,24.0,30.11,North,0,1.0,2.0,37,0.00,,,0.00,,2013-01-20 12:11:00,
2013-01-20 04:22:00,49.0,25.0,30.11,North,0,1.0,2.0,38,0.00,,,0.00,,2013-01-20 12:22:00,
2013-01-20 04:33:00,48.0,24.0,30.11,North,0,0.0,1.0,39,0.00,,,0.00,,2013-01-20 12:33:00,
2013-01-20 04:42:00,48.0,24.0,30.11,North,0,0.0,1.0,39,0.00,,,0.00,,2013-01-20 12:42:00,
2013-01-20 04:52:00,48.0,24.0,30.11,North,0,1.0,3.0,39,0.00,,,0.00,,2013-01-20 12:52:00,
2013-01-20 05:02:00,48.0,25.0,30.10,North,0,0.0,1.0,41,0.00,,,0.00,,2013-01-20 13:02:00,
2013-01-20 05:11:00,48.0,25.0,30.10,North,0,0.0,1.0,41,0.00,,,0.00,,2013-01-20 13:11:00,
2013-01-20 05:22:00,48.0,25.0,30.10,North,0,1.0,2.0,41,0.00,,,0.00,,2013-01-20 13:22:00,
2013-01-20 05:33:00,48.0,24.0,30.11,North,349,1.0,3.0,38,0.00,,,0.00,,2013-01-20 13:33:00,
2013-01-20 05:42:00,48.0,24.0,30.11,North,349,1.0,3.0,38,0.00,,,0.00,,2013-01-20 13:42:00,
2013-01-20 05:52:00,48.0,24.0,30.11,NNW,347,0.0,3.0,38,0.00,,,0.00,,2013-01-20 13:52:00,
2013-01-20 06:02:00,47.0,24.0,30.11,NNW,347,0.0,2.0,40,0.00,,,0.00,,2013-01-20 14:02:00,
2013-01-20 06:11:00,47.0,24.0,30.11,NNW,347,0.0,2.0,40,0.00,,,0.00,,2013-01-20 14:11:00,
2013-01-20 06:22:00,46.0,24.0,30.11,North,355,0.0,3.0,42,0.00,,,0.00,,2013-01-20 14:22:00,
2013-01-20 06:32:00,47.0,25.0,30.11,North,355,0.0,1.0,42,0.00,,,0.00,,2013-01-20 14:32:00,
2013-01-20 06:42:00,47.0,25.0,30.11,North,355,0.0,1.0,42,0.00,,,0.00,,2013-01-20 14:42:00,
2013-01-20 06:52:00,46.0,25.0,30.11,North,355,0.0,1.0,43,0.00,,,0.00,,2013-01-20 14:52:00,
2013-01-20 07:02:00,46.0,25.0,30.11,North,355,1.0,2.0,44,0.00,,,0.00,,2013-01-20 15:02:00,
2013-01-20 07:12:00,46.0,25.0,30.11,North,355,1.0,2.0,44,0.00,,,0.00,,2013-01-20 15:12:00,
2013-01-20 07:22:00,46.0,26.0,30.11,North,350,2.0,3.0,45,0.00,,,0.00,,2013-01-20 15:22:00,
2013-01-20 07:32:00,46.0,25.0,30.11,NNW,348,1.0,3.0,43,0.00,,,0.00,,2013-01-20 15:32:00,
2013-01-20 07:42:00,46.0,25.0,30.11,NNW,348,1.0,3.0,43,0.00,,,0.00,,2013-01-20 15:42:00,
2013-01-20 07:52:00,47.0,25.0,30.11,NNW,348,1.0,3.0,42,0.00,,,0.00,,2013-01-20 15:52:00,
2013-01-20 08:02:00,49.0,25.0,30.11,NNW,348,1.0,3.0,39,0.00,,,0.00,,2013-01-20 16:02:00,
2013-01-20 08:12:00,49.0,25.0,30.11,NNW,348,1.0,3.0,39,0.00,,,0.00,,2013-01-20 16:12:00,
2013-01-20 08:22:00,50.0,25.0,30.12,NNW,348,1.0,2.0,38,0.00,,,0.00,,2013-01-20 16:22:00,
2013-01-20 08:33:00,52.0,26.0,30.13,NNW,347,1.0,3.0,36,0.00,,,0.00,,2013-01-20 16:33:00,
2013-01-20 08:42:00,52.0,26.0,30.13,NNW,347,1.0,3.0,36,0.00,,,0.00,,2013-01-20 16:42:00,
2013-01-20 08:52:00,52.0,26.0,30.13,NW,318,2.0,3.0,36,0.00,,,0.00,,2013-01-20 16:52:00,
2013-01-20 09:02:00,54.0,26.0,30.13,NW,311,2.0,5.0,34,0.00,,,0.00,,2013-01-20 17:02:00,
2013-01-20 09:12:00,54.0,26.0,30.13,NW,311,2.0,5.0,34,0.00,,,0.00,,2013-01-20 17:12:00,
2013-01-20 09:22:00,55.0,26.0,30.13,NNW,335,3.0,5.0,33,0.00,,,0.00,,2013-01-20 17:22:00,
2013-01-20 09:32:00,58.0,28.0,30.14,NNW,344,1.0,3.0,32,0.00,,,0.00,,2013-01-20 17:32:00,
2013-01-20 09:42:00,58.0,28.0,30.14,NNW,344,1.0,3.0,32,0.00,,,0.00,,2013-01-20 17:42:00,
2013-01-20 09:52:00,59.0,28.0,30.14,NNW,330,2.0,3.0,30,0.00,,,0.00,,2013-01-20 17:52:00,
2013-01-20 10:02:00,60.0,28.0,30.14,NW,322,1.0,3.0,30,0.00,,,0.00,,2013-01-20 18:02:00,
2013-01-20 10:12:00,63.0,29.0,30.14,WNW,294,2.0,5.0,27,0.00,,,0.00,,2013-01-20 18:12:00,
2013-01-20 10:22:00,63.0,29.0,30.14,WNW,294,2.0,5.0,27,0.00,,,0.00,,2013-01-20 18:22:00,
2013-01-20 10:33:00,65.0,26.0,30.14,NW,318,2.0,3.0,23,0.00,,,0.00,,2013-01-20 18:33:00,
2013-01-20 10:42:00,65.0,26.0,30.14,NW,318,2.0,3.0,23,0.00,,,0.00,,2013-01-20 18:42:00,
2013-01-20 10:52:00,67.0,25.0,30.13,NW,316,2.0,5.0,20,0.00,,,0.00,,2013-01-20 18:52:00,
2013-01-20 11:02:00,70.0,25.0,30.13,NW,319,2.0,3.0,18,0.00,,,0.00,,2013-01-20 19:02:00,
2013-01-20 11:12:00,70.0,25.0,30.13,NW,319,2.0,3.0,18,0.00,,,0.00,,2013-01-20 19:12:00,
2013-01-20 11:22:00,71.0,24.0,30.12,NW,326,2.0,3.0,17,0.00,,,0.00,,2013-01-20 19:22:00,
2013-01-20 11:33:00,73.0,19.0,30.11,NW,321,2.0,5.0,13,0.00,,,0.00,,2013-01-20 19:33:00,
2013-01-20 11:42:00,73.0,19.0,30.11,NW,321,2.0,5.0,13,0.00,,,0.00,,2013-01-20 19:42:00,
2013-01-20 11:52:00,73.0,19.0,30.11,WNW,303,2.0,5.0,13,0.00,,,0.00,,2013-01-20 19:52:00,
2013-01-20 12:02:00,75.0,17.0,30.08,NW,321,3.0,7.0,11,0.00,,,0.00,,2013-01-20 20:02:00,
2013-01-20 12:12:00,75.0,17.0,30.08,NW,321,3.0,7.0,11,0.00,,,0.00,,2013-01-20 20:12:00,
2013-01-20 12:22:00,75.0,17.0,30.07,NW,313,3.0,5.0,11,0.00,,,0.00,,2013-01-20 20:22:00,
2013-01-20 12:33:00,76.0,18.0,30.06,NW,321,2.0,5.0,11,0.00,,,0.00,,2013-01-20 20:33:00,
2013-01-20 12:42:00,76.0,18.0,30.06,NW,321,2.0,5.0,11,0.00,,,0.00,,2013-01-20 20:42:00,
2013-01-20 12:52:00,77.0,18.0,30.05,WNW,294,3.0,7.0,11,0.00,,,0.00,,2013-01-20 20:52:00,
2013-01-20 13:03:00,77.0,16.0,30.03,West,269,3.0,8.0,10,0.00,,,0.00,,2013-01-20 21:03:00,
2013-01-20 13:12:00,77.0,16.0,30.03,West,269,3.0,8.0,10,0.00,,,0.00,,2013-01-20 21:12:00,
2013-01-20 13:22:00,78.0,17.0,30.03,NE,34,2.0,6.0,10,0.00,,,0.00,,2013-01-20 21:22:00,
2013-01-20 13:33:00,79.0,18.0,30.02,WNW,287,3.0,8.0,10,0.00,,,0.00,,2013-01-20 21:33:00,
2013-01-20 13:42:00,79.0,18.0,30.02,WNW,287,3.0,8.0,10,0.00,,,0.00,,2013-01-20 21:42:00,
2013-01-20 13:52:00,79.0,18.0,30.01,NNW,332,3.0,6.0,10,0.00,,,0.00,,2013-01-20 21:52:00,
2013-01-20 14:02:00,79.0,13.0,30.00,NNW,338,2.0,6.0,8,0.00,,,0.00,,2013-01-20 22:02:00,
2013-01-20 14:12:00,79.0,13.0,30.00,NNW,338,2.0,6.0,8,0.00,,,0.00,,2013-01-20 22:12:00,
2013-01-20 14:22:00,80.0,13.0,30.00,West,280,4.0,8.0,8,0.00,,,0.00,,2013-01-20 22:22:00,
2013-01-20 14:32:00,80.0,13.0,30.00,NW,315,4.0,8.0,8,0.00,,,0.00,,2013-01-20 22:32:00,
2013-01-20 14:42:00,80.0,13.0,30.00,NW,315,4.0,8.0,8,0.00,,,0.00,,2013-01-20 22:42:00,
2013-01-20 14:52:00,80.0,13.0,29.99,North,5,3.0,6.0,8,0.00,,,0.00,,2013-01-20 22:52:00,
2013-01-20 15:02:00,81.0,14.0,29.99,NW,315,2.0,5.0,8,0.00,,,0.00,,2013-01-20 23:02:00,
2013-01-20 15:12:00,81.0,14.0,29.99,NW,315,2.0,5.0,8,0.00,,,0.00,,2013-01-20 23:12:00,
2013-01-20 15:22:00,81.0,14.0,29.98,West,262,4.0,7.0,8,0.00,,,0.00,,2013-01-20 23:22:00,
2013-01-20 15:33:00,81.0,11.0,29.98,NW,317,1.0,3.0,7,0.00,,,0.00,,2013-01-20 23:33:00,
2013-01-20 15:42:00,81.0,11.0,29.98,NW,317,1.0,3.0,7,0.00,,,0.00,,2013-01-20 23:42:00,
2013-01-20 15:52:00,81.0,11.0,29.98,West,274,2.0,3.0,7,0.00,,,0.00,,2013-01-20 23:52:00,
2013-01-20 16:02:00,81.0,11.0,29.98,NW,321,3.0,5.0,7,0.00,,,0.00,,2013-01-21 00:02:00,
2013-01-20 16:12:00,81.0,11.0,29.98,NW,321,3.0,5.0,7,0.00,,,0.00,,2013-01-21 00:12:00,
2013-01-20 16:22:00,81.0,11.0,29.98,WNW,287,3.0,5.0,7,0.00,,,0.00,,2013-01-21 00:22:00,
2013-01-20 16:33:00,80.0,13.0,29.99,NW,317,3.0,5.0,8,0.00,,,0.00,,2013-01-21 00:33:00,
2013-01-20 16:42:00,80.0,13.0,29.99,NW,317,3.0,5.0,8,0.00,,,0.00,,2013-01-21 00:42:00,
2013-01-20 16:52:00,80.0,10.0,29.99,NW,317,1.0,3.0,7,0.00,,,0.00,,2013-01-21 00:52:00,
2013-01-20 17:02:00,79.0,15.0,29.99,WNW,295,1.0,3.0,9,0.00,,,0.00,,2013-01-21 01:02:00,
2013-01-20 17:12:00,79.0,15.0,29.99,WNW,295,1.0,3.0,9,0.00,,,0.00,,2013-01-21 01:12:00,
2013-01-20 17:22:00,78.0,15.0,29.99,WNW,295,1.0,3.0,9,0.00,,,0.00,,2013-01-21 01:22:00,
2013-01-20 17:32:00,76.0,20.0,30.00,West,261,4.0,7.0,12,0.00,,,0.00,,2013-01-21 01:32:00,
2013-01-20 17:42:00,76.0,20.0,30.00,West,261,4.0,7.0,12,0.00,,,0.00,,2013-01-21 01:42:00,
2013-01-20 17:52:00,73.0,23.0,30.00,West,262,3.0,8.0,15,0.00,,,0.00,,2013-01-21 01:52:00,
2013-01-20 18:02:00,71.0,23.0,30.01,West,280,3.0,5.0,16,0.00,,,0.00,,2013-01-21 02:02:00,
2013-01-20 18:11:00,71.0,23.0,30.01,West,280,3.0,5.0,16,0.00,,,0.00,,2013-01-21 02:11:00,
2013-01-20 18:22:00,70.0,22.0,30.01,WNW,284,5.0,9.0,16,0.00,,,0.00,,2013-01-21 02:22:00,
2013-01-20 18:33:00,68.0,20.0,30.02,WNW,287,1.0,7.0,16,0.00,,,0.00,,2013-01-21 02:33:00,
2013-01-20 18:42:00,68.0,20.0,30.02,WNW,287,1.0,7.0,16,0.00,,,0.00,,2013-01-21 02:42:00,
2013-01-20 18:52:00,67.0,19.0,30.02,NW,307,0.0,3.0,16,0.00,,,0.00,,2013-01-21 02:52:00,
2013-01-20 19:02:00,66.0,21.0,30.03,WNW,302,0.0,3.0,18,0.00,,,0.00,,2013-01-21 03:02:00,
2013-01-20 19:11:00,66.0,21.0,30.03,WNW,302,0.0,3.0,18,0.00,,,0.00,,2013-01-21 03:11:00,
2013-01-20 19:22:00,65.0,22.0,30.03,NW,310,0.0,3.0,19,0.00,,,0.00,,2013-01-21 03:22:00,
2013-01-20 19:33:00,64.0,22.0,30.04,NW,310,0.0,1.0,20,0.00,,,0.00,,2013-01-21 03:33:00,
2013-01-20 19:42:00,64.0,22.0,30.04,NW,310,0.0,1.0,20,0.00,,,0.00,,2013-01-21 03:42:00,
2013-01-20 19:52:00,64.0,23.0,30.04,NW,310,0.0,2.0,21,0.00,,,0.00,,2013-01-21 03:52:00,
2013-01-20 20:02:00,61.0,25.0,30.04,NW,311,0.0,2.0,25,0.00,,,0.00,,2013-01-21 04:02:00,
2013-01-20 20:11:00,61.0,25.0,30.04,NW,311,0.0,2.0,25,0.00,,,0.00,,2013-01-21 04:11:00,
2013-01-20 20:22:00,60.0,26.0,30.04,NW,311,0.0,1.0,27,0.00,,,0.00,,2013-01-21 04:22:00,
2013-01-20 20:32:00,59.0,26.0,30.05,NW,311,0.0,1.0,28,0.00,,,0.00,,2013-01-21 04:32:00,
2013-01-20 20:42:00,59.0,26.0,30.05,NW,311,0.0,1.0,28,0.00,,,0.00,,2013-01-21 04:42:00,
2013-01-20 20:52:00,58.0,26.0,30.05,NW,311,0.0,0.0,29,0.00,,,0.00,,2013-01-21 04:52:00,
2013-01-20 21:03:00,57.0,27.0,30.05,NW,311,0.0,0.0,31,0.00,,,0.00,,2013-01-21 05:03:00,
2013-01-20 21:12:00,57.0,27.0,30.05,NW,311,0.0,0.0,31,0.00,,,0.00,,2013-01-21 05:12:00,
2013-01-20 21:22:00,56.0,27.0,30.05,NW,311,0.0,0.0,32,0.00,,,0.00,,2013-01-21 05:22:00,
2013-01-20 21:33:00,55.0,29.0,30.06,NW,311,0.0,0.0,36,0.00,,,0.00,,2013-01-21 05:33:00,
2013-01-20 21:42:00,55.0,29.0,30.06,NW,311,0.0,0.0,36,0.00,,,0.00,,2013-01-21 05:42:00,
2013-01-20 21:52:00,55.0,30.0,30.06,NW,311,1.0,2.0,38,0.00,,,0.00,,2013-01-21 05:52:00,
2013-01-20 22:02:00,55.0,30.0,30.06,NW,311,1.0,3.0,38,0.00,,,0.00,,2013-01-21 06:02:00,
2013-01-20 22:12:00,55.0,30.0,30.06,NW,311,1.0,3.0,38,0.00,,,0.00,,2013-01-21 06:12:00,
2013-01-20 22:22:00,54.0,29.0,30.06,NW,311,0.0,2.0,38,0.00,,,0.00,,2013-01-21 06:22:00,
2013-01-20 22:32:00,54.0,29.0,30.06,NW,311,1.0,2.0,38,0.00,,,0.00,,2013-01-21 06:32:00,
2013-01-20 22:42:00,54.0,29.0,30.06,NW,311,1.0,2.0,38,0.00,,,0.00,,2013-01-21 06:42:00,
2013-01-20 22:52:00,54.0,29.0,30.06,NW,311,0.0,2.0,38,0.00,,,0.00,,2013-01-21 06:52:00,
2013-01-20 23:02:00,53.0,30.0,30.06,NW,311,1.0,2.0,41,0.00,,,0.00,,2013-01-21 07:02:00,
2013-01-20 23:11:00,53.0,30.0,30.06,NW,311,1.0,2.0,41,0.00,,,0.00,,2013-01-21 07:11:00,
2013-01-20 23:22:00,52.0,30.0,30.06,NW,316,2.0,3.0,43,0.00,,,0.00,,2013-01-21 07:22:00,
2013-01-20 23:33:00,51.0,30.0,30.06,NW,317,1.0,2.0,45,0.00,,,0.00,,2013-01-21 07:33:00,
2013-01-20 23:42:00,51.0,30.0,30.06,NW,317,1.0,2.0,45,0.00,,,0.00,,2013-01-21 07:42:00,
2013-01-20 23:52:00,51.0,30.0,30.06,NW,317,0.0,1.0,44,0.00,,,0.00,,2013-01-21 07:52:00,